Time;durP1;ratioP1;P1;durP2;ratioP2;P2;SDS_P1;SDS_P2;PMS_P1;PMS_P2;Temp;Humidity;BMP_temperature;BMP_pressure;BME280_temperature;BME280_humidity;BME280_pressure;Samples;Min_cycle;Max_cycle;Signal;HPM_P1;HPM_P2
2021/08/13 00:00:15;;;;;;;6.05;4.95;;;;;;;18.67;100.00;101027.48;1825318;77;21022;-86
2021/08/13 00:02:43;;;;;;;5.03;4.47;;;;;;;18.61;100.00;101026.30;1804884;78;20983;-87
2021/08/13 00:05:11;;;;;;;6.22;4.58;;;;;;;18.63;100.00;101027.47;1825334;77;20998;-86
2021/08/13 00:07:38;;;;;;;4.97;4.40;;;;;;;18.64;100.00;101032.58;1805166;78;21081;-87
2021/08/13 00:10:07;;;;;;;5.50;4.42;;;;;;;18.63;100.00;101035.39;1825322;77;21134;-87
2021/08/13 00:12:36;;;;;;;6.00;4.55;;;;;;;18.60;100.00;101032.55;1825377;77;20975;-87
2021/08/13 00:15:05;;;;;;;5.50;4.65;;;;;;;18.61;100.00;101039.48;1804774;78;21025;-86
2021/08/13 00:17:33;;;;;;;6.67;4.70;;;;;;;18.60;100.00;101033.87;1825523;77;21410;-87
2021/08/13 00:20:01;;;;;;;17.80;4.85;;;;;;;18.62;100.00;101037.18;1804817;78;21421;-87
2021/08/13 00:22:30;;;;;;;5.25;4.28;;;;;;;18.57;100.00;101032.88;1819504;77;21501;-86
2021/08/13 00:24:57;;;;;;;7.35;4.83;;;;;;;18.46;100.00;101039.27;1773034;80;21045;-87
2021/08/13 00:27:24;;;;;;;5.53;5.03;;;;;;;18.36;100.00;101046.45;1773204;80;21041;-87
2021/08/13 00:29:52;;;;;;;5.83;4.40;;;;;;;18.29;100.00;101044.44;1792806;79;20990;-88
2021/08/13 00:32:20;;;;;;;6.03;4.40;;;;;;;18.28;100.00;101045.42;1793150;78;21005;-88
2021/08/13 00:34:47;;;;;;;5.67;4.45;;;;;;;18.25;100.00;101044.41;1772979;80;21037;-88
2021/08/13 00:37:16;;;;;;;5.20;4.70;;;;;;;18.20;100.00;101045.84;1772565;78;21136;-88
2021/08/13 00:39:44;;;;;;;4.78;4.30;;;;;;;18.11;100.00;101047.61;1792567;78;21520;-87
2021/08/13 00:42:12;;;;;;;5.20;4.70;;;;;;;18.04;100.00;101053.16;1772731;78;21418;-86
2021/08/13 00:44:41;;;;;;;8.18;4.53;;;;;;;17.99;100.00;101047.54;1773108;80;21085;-86
2021/08/13 00:47:09;;;;;;;5.20;4.70;;;;;;;17.99;100.00;101056.25;1773033;80;21169;-87
2021/08/13 00:49:43;;;;;;;5.25;4.75;;;;;;;17.99;100.00;101058.89;1795180;79;21043;-89
2021/08/13 00:52:15;;;;;;;7.50;4.87;;;;;;;18.01;100.00;101064.84;1790455;78;20954;-87
2021/08/13 00:54:44;;;;;;;5.37;4.78;;;;;;;18.05;100.00;101066.67;1793052;79;21118;-87
2021/08/13 00:57:11;;;;;;;9.08;5.25;;;;;;;18.03;100.00;101069.45;1773219;80;20934;-89
2021/08/13 00:59:47;;;;;;;8.60;4.78;;;;;;;17.99;100.00;101058.89;1759992;79;21812;-88
2021/08/13 01:02:22;;;;;;;10.82;5.25;;;;;;;17.95;100.00;101062.77;1779662;78;21056;-86
2021/08/13 01:04:53;;;;;;;7.58;5.17;;;;;;;17.93;100.00;101070.83;1799270;78;21072;-87
2021/08/13 01:07:23;;;;;;;4.83;4.17;;;;;;;17.91;100.00;101071.46;1799812;78;20942;-88
2021/08/13 01:09:51;;;;;;;5.95;4.75;;;;;;;17.86;100.00;101075.05;1785922;79;21029;-87
2021/08/13 01:12:59;;;;;;;6.87;4.87;;;;;;;17.80;100.00;101070.40;1785816;79;21899;-87
2021/08/13 01:15:31;;;;;;;5.95;5.15;;;;;;;17.75;100.00;101073.48;1799835;79;21286;-87
2021/08/13 01:18:05;;;;;;;6.12;4.80;;;;;;;17.65;100.00;101068.31;1779429;79;21060;-87
2021/08/13 01:21:05;;;;;;;5.15;4.50;;;;;;;17.57;100.00;101074.81;1799859;78;21017;-87
2021/08/13 01:23:56;;;;;;;6.30;4.97;;;;;;;17.53;100.00;101089.73;1760058;78;20945;-87
2021/08/13 01:26:32;;;;;;;6.17;5.37;;;;;;;17.47;100.00;101085.89;1792421;78;21068;-87
2021/08/13 01:29:16;;;;;;;5.22;4.72;;;;;;;17.42;100.00;101083.70;1799625;78;20922;-87
2021/08/13 01:32:03;;;;;;;6.58;5.17;;;;;;;17.37;100.00;101088.59;1778544;78;20989;-87
2021/08/13 01:34:32;;;;;;;6.15;5.30;;;;;;;17.38;100.00;101084.15;1760654;78;21480;-88
2021/08/13 01:37:02;;;;;;;8.58;5.28;;;;;;;17.40;100.00;101082.20;1812491;78;21005;-89
2021/08/13 01:39:35;;;;;;;6.65;5.42;;;;;;;17.39;100.00;101083.17;1799409;78;20956;-88
2021/08/13 01:42:04;;;;;;;7.35;5.15;;;;;;;17.40;100.00;101084.84;1785717;79;21630;-88
2021/08/13 01:44:32;;;;;;;5.22;4.72;;;;;;;17.39;100.00;101083.17;1749319;79;21045;-89
2021/08/13 01:47:01;;;;;;;5.28;4.62;;;;;;;17.39;100.00;101087.94;1785850;78;20997;-88
2021/08/13 01:49:31;;;;;;;5.03;4.53;;;;;;;17.39;100.00;101083.17;1749269;79;21158;-88
2021/08/13 01:52:00;;;;;;;10.30;4.83;;;;;;;17.32;100.00;101089.52;1805626;78;21156;-88
2021/08/13 01:54:31;;;;;;;8.93;4.78;;;;;;;17.24;100.00;101087.64;1814114;77;21162;-89
2021/08/13 01:57:00;;;;;;;6.05;5.20;;;;;;;17.20;100.00;101094.16;1831887;77;21032;-88
2021/08/13 01:59:27;;;;;;;6.22;4.60;;;;;;;17.14;100.00;101090.80;1804369;77;21079;-87
2021/08/13 02:01:55;;;;;;;7.53;5.17;;;;;;;17.06;100.00;101089.39;1828960;77;21327;-88
2021/08/13 02:04:25;;;;;;;9.85;4.67;;;;;;;17.01;100.00;101093.77;1828960;77;21016;-89
2021/08/13 02:06:55;;;;;;;5.55;5.05;;;;;;;16.97;100.00;101099.00;1803375;77;21000;-86
2021/08/13 02:09:25;;;;;;;5.85;5.25;;;;;;;16.93;100.00;101098.93;1828887;77;21558;-88
2021/08/13 02:11:53;;;;;;;7.30;5.20;;;;;;;16.88;100.00;101113.33;1803413;77;20937;-89
2021/08/13 02:14:22;;;;;;;7.58;5.30;;;;;;;16.82;100.00;101115.70;1803246;78;21004;-88
2021/08/13 02:16:52;;;;;;;5.67;5.00;;;;;;;16.75;100.00;101115.94;1803288;77;21091;-88
2021/08/13 02:19:35;;;;;;;10.50;5.42;;;;;;;16.71;100.00;101117.52;1769483;77;21032;-88
2021/08/13 02:22:04;;;;;;;6.95;5.67;;;;;;;16.69;100.00;101117.33;1800970;77;21036;-88
2021/08/13 02:24:31;;;;;;;5.30;4.80;;;;;;;16.65;100.00;101124.67;1803433;77;21023;-88
2021/08/13 02:27:01;;;;;;;7.22;5.00;;;;;;;16.59;100.00;101124.41;1803233;77;21020;-87
2021/08/13 02:29:29;;;;;;;6.83;4.95;;;;;;;16.59;100.00;101128.34;1803418;77;21889;-87
2021/08/13 02:31:57;;;;;;;8.63;4.97;;;;;;;16.59;100.00;101129.66;1828976;77;20973;-87
2021/08/13 02:34:25;;;;;;;6.90;5.05;;;;;;;16.57;100.00;101125.88;1803218;77;21044;-88
2021/08/13 02:37:02;;;;;;;9.00;5.35;;;;;;;16.58;100.00;101127.53;1812044;78;21048;-88
2021/08/13 02:39:34;;;;;;;7.53;5.35;;;;;;;16.58;100.00;101130.16;1812403;77;21038;-88
2021/08/13 02:42:04;;;;;;;6.92;5.53;;;;;;;16.60;100.00;101134.80;1813389;78;21567;-89
2021/08/13 02:44:35;;;;;;;6.08;4.70;;;;;;;16.65;100.00;101137.82;1815514;77;21037;-89
2021/08/13 02:47:07;;;;;;;8.30;6.05;;;;;;;16.75;100.00;101139.60;1818636;77;21531;-85
2021/08/13 02:49:41;;;;;;;8.88;5.40;;;;;;;16.80;100.00;101147.41;1815528;77;21034;-86
2021/08/13 02:52:09;;;;;;;14.05;5.72;;;;;;;16.78;100.00;101147.21;1810898;78;21147;-86
2021/08/13 02:54:37;;;;;;;19.67;6.90;;;;;;;16.75;100.00;101144.86;1806197;77;21681;-86
2021/08/13 02:57:06;;;;;;;11.30;6.08;;;;;;;16.71;100.00;101153.02;1803001;77;21534;-86
2021/08/13 02:59:36;;;;;;;9.80;5.75;;;;;;;16.66;100.00;101150.50;1796171;77;20997;-88
2021/08/13 03:02:05;;;;;;;11.57;7.25;;;;;;;16.64;100.00;101152.44;1792473;78;20958;-86
2021/08/13 03:04:35;;;;;;;12.20;7.17;;;;;;;16.61;100.00;101160.13;1794582;78;20987;-85
2021/08/13 03:07:03;;;;;;;17.98;10.00;;;;;;;16.60;100.00;101153.20;1799735;77;21045;-86
2021/08/13 03:09:32;;;;;;;15.10;7.70;;;;;;;16.59;100.00;101160.74;1828850;77;21013;-88
2021/08/13 03:12:02;;;;;;;9.68;7.12;;;;;;;16.61;100.00;101165.38;1816012;77;21061;-87
2021/08/13 03:14:29;;;;;;;9.58;5.72;;;;;;;16.63;100.00;101166.55;1792347;78;21040;-85
2021/08/13 03:17:00;;;;;;;7.97;5.45;;;;;;;16.62;100.00;101151.73;1812783;77;21088;-85
2021/08/13 03:19:27;;;;;;;7.15;5.72;;;;;;;16.59;100.00;101169.09;1797462;78;21072;-86
2021/08/13 03:21:57;;;;;;;7.92;5.97;;;;;;;16.53;100.00;101166.08;1815464;77;21006;-84
2021/08/13 03:24:25;;;;;;;7.17;5.70;;;;;;;16.50;100.00;101170.78;1800427;78;21080;-88
2021/08/13 03:26:54;;;;;;;7.03;5.80;;;;;;;16.49;100.00;101173.06;1792362;78;20986;-85
2021/08/13 03:29:21;;;;;;;6.80;5.80;;;;;;;16.50;100.00;101166.84;1799887;78;20990;-86
2021/08/13 03:31:50;;;;;;;7.62;6.53;;;;;;;16.49;100.00;101169.97;1800191;77;21807;-86
2021/08/13 03:34:18;;;;;;;6.67;5.97;;;;;;;16.49;100.00;101166.50;1800157;77;20982;-85
2021/08/13 03:36:47;;;;;;;8.35;6.03;;;;;;;16.48;100.00;101170.94;1799010;77;21547;-85
2021/08/13 03:39:15;;;;;;;8.93;6.50;;;;;;;16.48;100.00;101176.19;1800372;77;21548;-85
2021/08/13 03:41:43;;;;;;;8.30;6.25;;;;;;;16.49;100.00;101180.48;1799606;78;21018;-86
2021/08/13 03:44:12;;;;;;;7.40;6.53;;;;;;;16.50;100.00;101179.52;1828645;77;21500;-86
2021/08/13 03:46:39;;;;;;;7.45;6.62;;;;;;;16.55;100.00;101188.27;1796887;78;21013;-86
2021/08/13 03:49:07;;;;;;;9.58;6.30;;;;;;;16.59;100.00;101190.98;1799799;78;21105;-87
2021/08/13 03:51:37;;;;;;;10.03;6.75;;;;;;;16.64;100.00;101194.50;1812127;78;21064;-86
2021/08/13 03:54:08;;;;;;;7.97;6.50;;;;;;;16.68;100.00;101190.14;1821463;78;21049;-86
2021/08/13 03:56:35;;;;;;;8.68;6.10;;;;;;;16.72;100.00;101180.98;1795692;77;21067;-87
2021/08/13 03:59:03;;;;;;;6.55;5.78;;;;;;;16.79;100.00;101176.45;1800769;78;21030;-85
2021/08/13 04:01:31;;;;;;;6.40;5.80;;;;;;;16.86;100.00;101178.89;1806125;78;21009;-86
2021/08/13 04:04:01;;;;;;;7.78;6.95;;;;;;;16.95;100.00;101176.72;1808605;78;21041;-85
2021/08/13 04:06:29;;;;;;;7.50;6.47;;;;;;;17.05;100.00;101181.12;1810298;78;21517;-84
2021/08/13 04:08:58;;;;;;;8.13;6.83;;;;;;;17.16;100.00;101181.77;1827643;77;20962;-85
2021/08/13 04:11:25;;;;;;;6.65;5.80;;;;;;;17.28;100.00;101182.41;1808333;78;20971;-86
2021/08/13 04:13:53;;;;;;;7.80;5.85;;;;;;;17.39;100.00;101182.70;1802737;77;20989;-86
2021/08/13 04:16:24;;;;;;;7.07;6.00;;;;;;;17.50;100.00;101180.38;1823347;77;21002;-85
2021/08/13 04:18:55;;;;;;;7.57;6.37;;;;;;;17.58;100.00;101185.74;1825674;77;21144;-86
2021/08/13 04:21:23;;;;;;;7.50;5.50;;;;;;;17.66;100.00;101179.25;1808054;78;22245;-86
2021/08/13 04:23:50;;;;;;;8.88;6.42;;;;;;;17.75;100.00;101184.58;1807070;78;21477;-85
2021/08/13 04:26:17;;;;;;;6.47;5.75;;;;;;;17.84;100.00;101186.32;1807708;77;22078;-87
2021/08/13 04:28:44;;;;;;;6.90;5.70;;;;;;;17.91;100.00;101183.92;1827953;77;20989;-86
2021/08/13 04:31:11;;;;;;;6.60;6.00;;;;;;;17.99;100.00;101186.67;1834439;77;21013;-85
2021/08/13 04:33:39;;;;;;;8.15;5.70;;;;;;;18.08;100.00;101190.20;1808740;78;20986;-85
2021/08/13 04:36:17;;;;;;;6.97;6.28;;;;;;;18.16;100.00;101200.00;1824875;77;21036;-87
2021/08/13 04:38:45;;;;;;;7.80;5.72;;;;;;;18.23;100.00;101199.23;1806933;78;21175;-87
2021/08/13 04:41:13;;;;;;;7.05;6.10;;;;;;;18.32;100.00;101190.07;1803970;78;21603;-87
2021/08/13 04:43:43;;;;;;;8.75;5.65;;;;;;;18.42;100.00;101190.82;1827693;77;20910;-85
2021/08/13 04:46:13;;;;;;;6.83;5.30;;;;;;;18.52;100.00;101192.04;1811951;78;21503;-84
2021/08/13 04:48:40;;;;;;;5.92;5.33;;;;;;;18.65;100.00;101194.28;1808916;77;21007;-85
2021/08/13 04:51:08;;;;;;;7.35;5.03;;;;;;;18.81;100.00;101187.79;1810605;78;21091;-85
2021/08/13 04:53:36;;;;;;;5.45;4.95;;;;;;;18.96;100.00;101197.80;1827542;77;21053;-83
2021/08/13 04:56:07;;;;;;;6.15;5.00;;;;;;;19.07;100.00;101201.49;1809782;78;21010;-85
2021/08/13 04:58:36;;;;;;;12.35;5.30;;;;;;;19.17;100.00;101206.17;1803129;78;21089;-86
2021/08/13 05:01:03;;;;;;;5.20;4.47;;;;;;;19.23;100.00;101208.17;1813147;78;21044;-84
2021/08/13 05:03:31;;;;;;;6.78;4.65;;;;;;;19.31;100.00;101208.69;1806144;78;20977;-84
2021/08/13 05:05:58;;;;;;;7.80;4.90;;;;;;;19.37;100.00;101209.87;1809432;77;21006;-83
2021/08/13 05:08:25;;;;;;;6.37;5.25;;;;;;;19.40;100.00;101213.53;1830016;77;21909;-84
2021/08/13 05:10:53;;;;;;;12.63;5.35;;;;;;;19.44;100.00;101211.39;1812733;78;21807;-87
2021/08/13 05:13:22;;;;;;;13.90;5.92;;;;;;;19.47;100.00;101214.54;1809691;78;21378;-88
2021/08/13 05:15:49;;;;;;;5.05;4.55;;;;;;;19.51;100.00;101214.54;1810217;78;21551;-85
2021/08/13 05:18:16;;;;;;;7.17;4.95;;;;;;;19.60;100.00;101213.25;1785569;78;20994;-86
2021/08/13 05:20:45;;;;;;;8.20;5.20;;;;;;;19.69;100.00;101209.65;1830101;77;21041;-86
2021/08/13 05:23:14;;;;;;;7.60;4.90;;;;;;;19.79;100.00;101211.66;1811140;77;21245;-91
2021/08/13 05:25:42;;;;;;;5.40;4.90;;;;;;;19.84;100.00;101214.67;1809379;78;21307;-89
2021/08/13 05:28:09;;;;;;;5.37;4.87;;;;;;;19.89;100.00;101214.19;1811335;78;21090;-84
2021/08/13 05:30:39;;;;;;;7.78;5.00;;;;;;;19.93;100.00;101208.92;1807264;77;21057;-86
2021/08/13 05:33:16;;;;;;;;;;;;;;;;;;;;;
2021/08/13 05:35:37;;;;;;;10.85;4.67;;;;;;;20.08;100.00;101217.02;1807671;78;21990;-84
2021/08/13 05:38:06;;;;;;;9.45;5.08;;;;;;;20.18;100.00;101222.17;1813429;77;21112;-83
2021/08/13 05:40:34;;;;;;;9.08;5.12;;;;;;;20.30;100.00;101217.39;1811076;77;21037;-83
2021/08/13 05:43:04;;;;;;;7.67;4.83;;;;;;;20.41;100.00;101222.33;1807987;78;21037;-82
2021/08/13 05:45:31;;;;;;;7.92;5.05;;;;;;;20.50;100.00;101217.88;1812804;78;21002;-84
2021/08/13 05:47:58;;;;;;;8.30;5.20;;;;;;;20.58;100.00;101219.67;1797807;78;21109;-82
2021/08/13 05:50:25;;;;;;;5.72;4.92;;;;;;;20.68;100.00;101215.05;1803326;78;20993;-82
2021/08/13 05:52:52;;;;;;;5.58;4.58;;;;;;;20.83;100.00;101217.03;1809450;78;21034;-83
2021/08/13 05:55:19;;;;;;;7.05;4.67;;;;;;;21.00;100.00;101227.91;1809097;78;21002;-83
2021/08/13 05:57:47;;;;;;;4.87;4.40;;;;;;;21.12;100.00;101217.28;1810552;78;21079;-85
2021/08/13 06:00:16;;;;;;;6.08;4.70;;;;;;;21.25;100.00;101223.87;1819428;77;21471;-84
2021/08/13 06:02:55;;;;;;;7.25;4.97;;;;;;;21.34;100.00;101222.84;1781776;78;21104;-84
2021/08/13 06:05:22;;;;;;;5.12;4.62;;;;;;;21.41;100.00;101222.97;1782200;78;21044;-85
2021/08/13 06:07:51;;;;;;;5.42;4.65;;;;;;;21.48;100.00;101219.14;1818234;77;21630;-86
2021/08/13 06:10:19;;;;;;;6.28;4.65;;;;;;;21.56;100.00;101219.09;1813762;77;21040;-87
2021/08/13 06:12:48;;;;;;;5.35;4.65;;;;;;;21.65;100.00;101215.44;1781726;78;21966;-85
2021/08/13 06:15:17;;;;;;;7.08;4.62;;;;;;;21.74;100.00;101214.88;1756867;77;21557;-85
2021/08/13 06:17:45;;;;;;;9.73;5.08;;;;;;;21.82;100.00;101212.19;1787740;77;22006;-85
2021/08/13 06:20:18;;;;;;;6.47;4.83;;;;;;;21.92;100.00;101213.27;1808846;78;20923;-85
2021/08/13 06:22:48;;;;;;;5.40;4.65;;;;;;;22.03;100.00;101205.44;1822102;78;21010;-85
2021/08/13 06:25:16;;;;;;;7.10;4.70;;;;;;;22.10;100.00;101205.05;1778598;78;21113;-85
2021/08/13 06:27:45;;;;;;;5.37;4.87;;;;;;;22.16;100.00;101210.13;1789937;79;21372;-85
2021/08/13 06:30:19;;;;;;;5.35;4.60;;;;;;;22.20;100.00;101212.76;1787321;77;21012;-86
2021/08/13 06:32:46;;;;;;;9.65;5.53;;;;;;;22.26;100.00;101208.58;1775916;79;21615;-85
2021/08/13 06:35:14;;;;;;;6.95;4.75;;;;;;;22.31;100.00;101216.30;1747607;80;21025;-85
2021/08/13 06:37:50;;;;;;;8.30;5.03;;;;;;;22.34;100.00;101222.58;1724757;80;21754;-81
2021/08/13 06:40:18;;;;;;;5.20;4.60;;;;;;;22.34;100.00;101221.25;1757693;80;21038;-83
2021/08/13 06:42:46;;;;;;;9.53;5.15;;;;;;;22.35;100.00;101219.45;1723875;80;21033;-85
2021/08/13 06:45:18;;;;;;;7.47;4.95;;;;;;;22.33;100.00;101224.91;1746278;80;21093;-84
2021/08/13 06:47:45;;;;;;;;;;;;;;;22.19;100.00;101218.55;1721038;82;21077;-84
2021/08/13 06:50:14;;;;;;;8.18;5.08;;;;;;;22.08;100.00;101220.79;1746726;80;20803;-84
2021/08/13 06:52:43;;;;;;;9.08;5.35;;;;;;;21.99;100.00;101222.69;1713697;82;21026;-85
2021/08/13 06:55:11;;;;;;;7.67;5.08;;;;;;;21.92;100.00;101221.23;1717521;81;21014;-84
2021/08/13 06:57:40;;;;;;;7.60;5.87;;;;;;;21.90;100.00;101219.27;1742604;81;21022;-84
2021/08/13 07:00:10;;;;;;;13.03;5.78;;;;;;;21.89;100.00;101222.41;1746804;82;21113;-83
2021/08/13 07:02:38;;;;;;;9.58;5.22;;;;;;;21.89;100.00;101229.03;1717394;82;21124;-83
2021/08/13 07:05:06;;;;;;;8.78;5.72;;;;;;;21.90;100.00;101220.09;1717112;82;21066;-84
2021/08/13 07:07:33;;;;;;;10.58;6.03;;;;;;;22.00;100.00;101224.34;1746784;81;21050;-84
2021/08/13 07:10:10;;;;;;;8.98;6.15;;;;;;;22.10;100.00;101230.73;1717206;82;21033;-84
2021/08/13 07:12:39;;;;;;;8.33;6.20;;;;;;;22.17;100.00;101236.97;1717119;82;21608;-84
2021/08/13 07:15:09;;;;;;;8.70;5.87;;;;;;;22.22;100.00;101224.83;1717158;82;21891;-84
2021/08/13 07:17:36;;;;;;;8.20;5.78;;;;;;;22.33;100.00;101239.50;1717344;82;21632;-84
2021/08/13 07:20:07;;;;;;;8.23;5.47;;;;;;;22.36;97.88;101239.16;1716818;82;21010;-84
2021/08/13 07:22:35;;;;;;;7.10;5.93;;;;;;;22.31;100.00;101234.05;1717708;82;21003;-84
2021/08/13 07:25:03;;;;;;;10.40;5.83;;;;;;;22.23;99.80;101236.28;1746793;81;21595;-85
2021/08/13 07:27:33;;;;;;;9.48;5.58;;;;;;;22.27;100.00;101244.20;1717558;82;21005;-83
2021/08/13 07:30:00;;;;;;;8.95;5.87;;;;;;;22.40;100.00;101245.44;1717228;82;20959;-84
2021/08/13 07:32:28;;;;;;;5.58;5.00;;;;;;;22.55;100.00;101248.98;1717573;82;21049;-84
2021/08/13 07:34:56;;;;;;;5.67;4.50;;;;;;;22.66;95.58;101253.84;1717275;82;21412;-85
2021/08/13 07:37:25;;;;;;;9.15;5.37;;;;;;;22.67;88.73;101247.53;1714054;82;21005;-83
2021/08/13 07:39:51;;;;;;;8.20;5.30;;;;;;;22.63;93.19;101243.61;1746947;82;21134;-83
2021/08/13 07:42:18;;;;;;;7.12;4.53;;;;;;;22.58;92.37;101240.66;1717580;81;21464;-83
2021/08/13 07:44:46;;;;;;;6.15;4.95;;;;;;;22.59;92.51;101241.49;1705164;82;21058;-84
2021/08/13 07:47:14;;;;;;;5.95;5.10;;;;;;;22.59;94.82;101246.28;1747055;82;21065;-85
2021/08/13 07:49:43;;;;;;;7.37;5.30;;;;;;;22.65;97.58;101245.56;1717107;82;21050;-84
2021/08/13 07:52:10;;;;;;;9.58;5.62;;;;;;;22.72;100.00;101240.84;1746865;82;21178;-85
2021/08/13 07:54:38;;;;;;;7.70;5.80;;;;;;;22.76;100.00;101242.96;1716907;82;21018;-85
2021/08/13 07:57:06;;;;;;;6.78;4.90;;;;;;;22.76;100.00;101244.81;1746765;81;21049;-84
2021/08/13 07:59:35;;;;;;;6.72;5.22;;;;;;;22.79;96.22;101251.09;1746747;81;21057;-84
2021/08/13 08:02:02;;;;;;;5.45;4.50;;;;;;;22.87;89.74;101245.70;1734805;81;21512;-83
2021/08/13 08:04:29;;;;;;;7.20;4.65;;;;;;;22.99;87.52;101241.58;1735553;81;21808;-85
2021/08/13 08:06:57;;;;;;;10.23;5.50;;;;;;;23.13;85.39;101251.89;1763166;80;21044;-86
2021/08/13 08:09:25;;;;;;;15.78;6.45;;;;;;;23.31;79.55;101239.59;1735357;81;20997;-87
2021/08/13 08:11:52;;;;;;;15.10;5.58;;;;;;;23.53;85.75;101241.48;1735001;81;21579;-84
2021/08/13 08:14:20;;;;;;;16.52;6.78;;;;;;;23.80;82.79;101233.30;1763397;81;21060;-85
2021/08/13 08:16:47;;;;;;;10.25;5.65;;;;;;;23.99;74.99;101240.39;1706708;81;20993;-86
2021/08/13 08:19:14;;;;;;;10.75;5.17;;;;;;;24.01;67.08;101239.18;1703936;82;20954;-86
2021/08/13 08:21:43;;;;;;;16.00;5.87;;;;;;;24.00;73.76;101237.53;1718666;82;20958;-86
2021/08/13 08:24:12;;;;;;;7.92;5.17;;;;;;;24.03;76.93;101241.16;1735023;81;21044;-86
2021/08/13 08:26:39;;;;;;;9.03;5.00;;;;;;;24.07;65.64;101249.58;1731438;82;21627;-85
2021/08/13 08:29:07;;;;;;;10.32;5.28;;;;;;;24.03;65.72;101242.48;1679937;82;21076;-86
2021/08/13 08:31:33;;;;;;;5.17;4.65;;;;;;;24.03;68.09;101241.64;1763219;81;21492;-85
2021/08/13 08:34:00;;;;;;;6.12;4.55;;;;;;;24.01;62.35;101251.15;1738093;81;21016;-86
2021/08/13 08:36:29;;;;;;;8.73;4.97;;;;;;;23.94;58.98;101243.09;1719241;82;21495;-85
2021/08/13 08:38:55;;;;;;;7.03;4.67;;;;;;;23.90;60.44;101244.47;1745100;82;21038;-86
2021/08/13 08:41:24;;;;;;;6.08;5.10;;;;;;;23.94;68.21;101247.60;1736427;80;21085;-85
2021/08/13 08:43:52;;;;;;;6.95;4.97;;;;;;;24.03;64.43;101245.62;1744733;82;21014;-85
2021/08/13 08:46:21;;;;;;;7.53;5.05;;;;;;;24.07;62.15;101237.61;1719517;82;21125;-87
2021/08/13 08:48:52;;;;;;;7.67;4.53;;;;;;;24.13;61.40;101243.48;1719067;82;21039;-85
2021/08/13 08:51:20;;;;;;;5.78;4.42;;;;;;;24.18;64.83;101237.59;1719733;82;21649;-84
2021/08/13 08:53:56;;;;;;;6.22;4.47;;;;;;;24.22;60.51;101235.70;1719541;82;21105;-84
2021/08/13 08:56:26;;;;;;;8.85;5.00;;;;;;;24.28;58.99;101244.73;1745284;82;21537;-88
2021/08/13 08:58:53;;;;;;;6.83;5.05;;;;;;;24.34;57.16;101231.17;1719933;82;20971;-87
2021/08/13 09:01:22;;;;;;;36.23;11.68;;;;;;;24.36;64.03;101235.28;1732988;81;21005;-85
2021/08/13 09:03:49;;;;;;;9.83;6.33;;;;;;;24.44;66.78;101226.36;1765001;79;21028;-86
2021/08/13 09:06:15;;;;;;;22.02;8.63;;;;;;;24.53;69.78;101222.54;1741568;81;22286;-85
2021/08/13 09:08:43;;;;;;;28.23;9.43;;;;;;;24.69;70.12;101225.95;1742877;81;21008;-86
2021/08/13 09:11:11;;;;;;;14.80;6.53;;;;;;;24.83;67.68;101232.20;1769320;81;21080;-85
2021/08/13 09:13:39;;;;;;;13.48;6.15;;;;;;;24.93;70.29;101235.83;1759711;81;21056;-85
2021/08/13 09:16:15;;;;;;;10.48;5.47;;;;;;;24.97;65.23;101229.08;1742454;79;21039;-85
2021/08/13 09:18:45;;;;;;;17.82;6.30;;;;;;;24.99;63.08;101231.05;1741825;81;21355;-87
2021/08/13 09:21:22;;;;;;;7.87;5.40;;;;;;;24.96;66.57;101225.61;1740720;79;22173;-85
2021/08/13 09:23:49;;;;;;;18.10;7.03;;;;;;;24.89;63.64;101234.88;1740599;80;20985;-84
2021/08/13 09:26:22;;;;;;;26.70;8.10;;;;;;;24.79;61.42;101238.91;1746133;79;21079;-88
2021/08/13 09:29:11;;;;;;;11.15;4.97;;;;;;;24.67;63.77;101239.47;1758722;80;20985;-87
2021/08/13 09:31:40;;;;;;;7.58;5.05;;;;;;;24.60;64.83;101237.73;1742478;81;21159;-84
2021/08/13 09:34:15;;;;;;;7.65;5.10;;;;;;;24.54;73.15;101228.67;1742247;80;20988;-88
2021/08/13 09:36:54;;;;;;;6.35;5.00;;;;;;;24.52;64.45;101230.70;1742344;79;21560;-84
2021/08/13 09:39:31;;;;;;;9.63;5.20;;;;;;;24.50;62.61;101226.91;1741326;81;21013;-87
2021/08/13 09:42:03;;;;;;;8.13;5.50;;;;;;;24.50;63.18;101230.09;1742363;81;21040;-84
2021/08/13 09:44:33;;;;;;;8.13;5.12;;;;;;;24.53;61.97;101235.84;1764414;79;21141;-84
2021/08/13 09:47:16;;;;;;;7.40;4.90;;;;;;;24.55;58.72;101232.98;1742065;79;21099;-85
2021/08/13 09:49:54;;;;;;;8.60;5.37;;;;;;;24.52;59.29;101238.68;1741965;80;21064;-84
2021/08/13 09:52:21;;;;;;;6.42;5.20;;;;;;;24.45;61.03;101240.47;1728833;81;21053;-85
2021/08/13 09:54:53;;;;;;;6.42;5.10;;;;;;;24.42;62.87;101240.35;1742451;81;21033;-91
2021/08/13 09:57:30;;;;;;;7.47;4.92;;;;;;;24.39;68.87;101234.91;1738525;81;22306;-86
2021/08/13 10:00:05;;;;;;;6.70;4.30;;;;;;;24.38;61.39;101240.44;1762931;79;20929;-85
2021/08/13 10:02:48;;;;;;;6.37;4.87;;;;;;;24.40;60.56;101238.38;1741298;81;21056;-89
2021/08/13 10:05:25;;;;;;;6.60;4.90;;;;;;;24.44;60.58;101242.32;1768479;79;21087;-85
2021/08/13 10:10:41;;;;;;;21.97;7.67;;;;;;;24.68;67.77;101234.95;1870249;76;22739;-85
2021/08/13 10:13:11;;;;;;;23.57;8.28;;;;;;;24.77;58.64;101236.45;1805655;78;21040;-85
2021/08/13 10:15:48;;;;;;;16.85;6.58;;;;;;;24.91;57.98;101232.53;1804957;78;21242;-87
2021/08/13 10:18:19;;;;;;;6.35;3.98;;;;;;;25.09;60.57;101238.19;1801147;78;20914;-86
2021/08/13 10:20:50;;;;;;;5.85;4.22;;;;;;;25.26;57.77;101242.66;1822743;77;20961;-86
2021/08/13 10:23:22;;;;;;;5.75;4.00;;;;;;;25.31;53.43;101247.40;1772330;80;21499;-88
2021/08/13 10:25:52;;;;;;;4.28;3.83;;;;;;;25.32;58.42;101249.05;1794253;78;20926;-86
2021/08/13 10:28:22;;;;;;;5.10;4.00;;;;;;;25.39;58.23;101244.59;1795343;78;21091;-86
2021/08/13 10:30:52;;;;;;;5.20;3.80;;;;;;;25.43;50.87;101247.20;1786832;78;21074;-86
2021/08/13 10:33:20;;;;;;;8.70;4.25;;;;;;;25.36;53.15;101239.63;1814288;77;21563;-86
2021/08/13 10:35:56;;;;;;;5.12;4.10;;;;;;;25.21;50.82;101242.44;1802297;78;21061;-88
2021/08/13 10:38:29;;;;;;;5.17;4.30;;;;;;;25.13;52.24;101238.09;1824017;77;20994;-88
2021/08/13 10:40:54;;;;;;;5.83;3.70;;;;;;;25.20;52.26;101240.27;1805356;78;21477;-88
2021/08/13 10:43:30;;;;;;;4.65;3.90;;;;;;;25.36;52.56;101250.28;1805155;77;21500;-86
2021/08/13 10:46:03;;;;;;;5.85;4.20;;;;;;;25.53;52.80;101249.97;1779479;78;21038;-86
2021/08/13 10:48:33;;;;;;;5.78;4.20;;;;;;;25.56;53.21;101252.25;1804755;78;21367;-86
2021/08/13 10:51:02;;;;;;;6.95;4.15;;;;;;;25.54;51.77;101251.62;1805653;77;20974;-85
2021/08/13 10:53:35;;;;;;;5.08;4.42;;;;;;;25.57;55.40;101255.23;1805501;77;21025;-85
2021/08/13 10:56:06;;;;;;;6.22;4.30;;;;;;;25.51;53.86;101252.35;1823241;78;21049;-86
2021/08/13 10:58:41;;;;;;;5.97;4.65;;;;;;;25.31;56.77;101239.41;1779016;78;21060;-84
2021/08/13 11:01:23;;;;;;;7.58;4.40;;;;;;;25.08;55.70;101249.86;1805808;77;20982;-88
2021/08/13 11:04:00;;;;;;;5.25;3.95;;;;;;;24.93;59.90;101255.81;1804374;78;21052;-87
2021/08/13 11:06:44;;;;;;;4.75;4.15;;;;;;;24.82;59.81;101255.84;1799433;77;21276;-84
2021/08/13 11:09:25;;;;;;;6.05;4.60;;;;;;;24.77;56.06;101263.08;1801078;78;21026;-85
2021/08/13 11:12:00;;;;;;;6.60;4.17;;;;;;;24.78;54.45;101257.23;1779363;78;21124;-87
2021/08/13 11:14:35;;;;;;;4.95;3.90;;;;;;;24.80;60.33;101266.67;1805465;77;21512;-88
2021/08/13 11:17:03;;;;;;;5.22;4.03;;;;;;;24.85;63.13;101260.77;1805654;78;20923;-85
2021/08/13 11:19:59;;;;;;;7.00;4.22;;;;;;;24.84;55.23;101266.61;1826140;78;20986;-83
2021/08/13 11:22:31;;;;;;;7.58;4.40;;;;;;;24.88;54.88;101267.05;1800911;78;21017;-86
2021/08/13 11:24:59;;;;;;;;;;;;;;;24.93;59.25;101266.47;1807485;78;21093;-84
2021/08/13 11:27:27;;;;;;;6.67;4.03;;;;;;;24.93;56.46;101266.47;1804742;78;20139;-89
2021/08/13 11:29:58;;;;;;;3.90;3.60;;;;;;;24.85;50.64;101260.27;1820805;78;20989;-86
2021/08/13 11:32:36;;;;;;;7.05;4.05;;;;;;;24.79;50.07;101265.55;1810942;78;21844;-86
2021/08/13 11:35:10;;;;;;;4.62;3.62;;;;;;;24.76;52.27;101268.61;1800705;78;21068;-84